Telemetry
Timestamp Node Air Util TX Channel Util Battery Uptime Voltage Current Barometric Pressure Relative Humidity Temperature Gas Resistance
2026-09-02 05:01:15 RF03 0.14% 1.2% 100% 1112903 4.19 V
2026-09-02 05:01:15 RF03 0.14% 1.2% 100% 1112903 4.19 V
2026-09-02 05:01:15 RF03 0.14% 1.2% 100% 1112903 4.19 V
2026-09-02 05:01:12 RF03 0.14% 1.2% 100% 1112903 4.19 V
2026-09-02 05:01:12 RF03 0.14% 1.2% 100% 1112903 4.19 V
2026-09-02 05:01:12 RF03 0.14% 1.2% 100% 1112903 4.19 V
2026-09-02 04:57:07 EN11 0.12% 0.0% 101% 67015 4.11 V
2026-09-02 04:57:07 EN11 0.12% 0.0% 101% 67015 4.11 V
2026-09-02 04:57:07 EN11 0.12% 0.0% 101% 67015 4.11 V
2026-09-02 04:56:54 LRX1 1.5% 9.6% 101% 8116472 4.84 V
2026-09-02 04:56:54 LRX1 1.5% 9.6% 101% 8116472 4.84 V
2026-09-02 04:56:51 LRX1 1.5% 9.6% 101% 8116472 4.84 V
2026-09-02 04:56:50 LRX1 1.5% 9.6% 101% 8116472 4.84 V
2026-09-02 04:54:27 IIXF 1.49% 5.5% 101% 1089385 4.33 V
2026-09-02 04:54:27 IIXF 1.49% 5.5% 101% 1089385 4.33 V
2026-09-02 04:52:35 TG08 0.38% 0.0% 89% 321377 4.04 V
2026-09-02 04:52:35 TG08 20.37°C
2026-09-02 04:52:32 IIXF 859.12 hPa 58.42% 13.57°C 92.45 Ohm
2026-09-02 04:52:31 IIXF 859.12 hPa 58.42% 13.57°C 92.45 Ohm
2026-09-02 04:51:19 PMT2 21.0°C
2026-09-02 04:51:17 PMT2 21.0°C
2026-09-02 04:51:17 PMT2 21.0°C
2026-09-02 04:51:13 PMT2 1.72% 0.0% 101% 1722330 4.2 V
2026-09-02 04:51:13 PMT2 1.72% 0.0% 101% 1722330 4.2 V
2026-09-02 04:51:11 PMT2 1.72% 0.0% 101% 1722330 4.2 V
2026-09-02 04:51:10 PMT2 1.72% 0.0% 101% 1722330 4.2 V
2026-09-02 04:51:06 PMT2 1.72% 0.0% 101% 1722330 4.2 V
2026-09-02 04:51:06 PMT2 1.72% 0.0% 101% 1722330 4.2 V
2026-09-02 04:50:57 7274 1.06% 1.1% 100% 2331061 4.13 V
2026-09-02 04:50:57 7274 1.06% 1.1% 100% 2331061 4.13 V
2026-09-02 04:48:54 EEPr 0.52% 0.0% 101% 2226033 4.34 V
2026-09-02 04:48:53 EEPr 0.52% 0.0% 101% 2226033 4.34 V
2026-09-02 04:47:20 EN01 0.2% 1.7% 85% 141222 4.02 V
2026-09-02 04:47:20 EN01 0.2% 1.7% 85% 141222 4.02 V
2026-09-02 04:46:16 MSHU 0.06% 12.6% 101% 61 4.22 V
2026-09-02 04:46:14 MSHU 0.06% 12.6% 101% 61 4.22 V
2026-09-02 04:46:14 MSHU 0.06% 12.6% 101% 61 4.22 V
2026-09-02 04:46:14 MSHU 0.06% 12.6% 101% 61 4.22 V
2026-09-02 04:45:02 ah03
2026-09-02 04:45:01 ah03
2026-09-02 04:45:01 ah03
2026-09-02 04:44:58 ah03 0.82% 8.5% 73% 3821054 3.93 V
2026-09-02 04:44:58 ah03
2026-09-02 04:44:57 ah03 0.82% 8.5% 73% 3821054 3.93 V
2026-09-02 04:44:56 ah03 0.82% 8.5% 73% 3821054 3.93 V
2026-09-02 04:44:53 ah03 0.82% 8.5% 73% 3821054 3.93 V
2026-09-02 04:44:53 ah03 0.82% 8.5% 73% 3821054 3.93 V
2026-09-02 04:43:03 DOS 1.43% 2.2% 98% 149954 4.18 V
2026-09-02 04:43:03 DOS 1.43% 2.2% 98% 149954 4.18 V
2026-09-02 04:41:02 EN06 0.08% 0.0% 84% 45299 4.02 V
2026-09-02 04:41:02 EN06 0.08% 0.0% 84% 45299 4.02 V
2026-09-02 04:40:58 EN06 0.08% 0.0% 84% 45299 4.02 V
2026-09-02 04:39:48 ah01 1.06% 2.0% 96% 6113498 4.14 V
2026-09-02 04:39:47 ah01 1.06% 2.0% 96% 6113498 4.14 V
2026-09-02 04:39:42 ah01 1.06% 2.0% 96% 6113498 4.14 V
2026-09-02 04:39:40 ah01 1.06% 2.0% 96% 6113498 4.14 V
2026-09-02 04:39:39 ah01 1.06% 2.0% 96% 6113498 4.14 V
2026-09-02 04:38:21 htec 3.2% 5.1% 101% 89065 4.25 V
2026-09-02 04:38:21 htec 3.2% 5.1% 101% 89065 4.25 V
2026-09-02 04:38:21 htec 3.2% 5.1% 101% 89065 4.25 V
2026-09-02 04:38:17 htec 3.2% 5.1% 101% 89065 4.25 V
2026-09-02 04:38:17 htec 3.2% 5.1% 101% 89065 4.25 V
2026-09-02 04:38:14 LMGB 0.32% 1.1% 101% 939838 -0.0 V
2026-09-02 04:38:14 LMGB 0.32% 1.1% 101% 939838 -0.0 V
2026-09-02 04:37:55 EEPa 854.81 hPa 50.19% 21.4°C
2026-09-02 04:37:55 EEPa 854.81 hPa 50.19% 21.4°C
2026-09-02 04:36:54 J8ke 1.46% 4.3% 101% 143259 5.04 V
2026-09-02 04:36:53 J8ke 1.46% 4.3% 101% 143259 5.04 V
2026-09-02 04:36:53 J8ke 1.46% 4.3% 101% 143259 5.04 V
2026-09-02 04:34:02 PTRH 0.38% 0.0% 50% 1353193 3.73 V
2026-09-02 04:34:02 PTRH 0.38% 0.0% 50% 1353193 3.73 V
2026-09-02 04:33:27 IIXF 1.46% 3.9% 101% 1088125 4.38 V
2026-09-02 04:33:27 IIXF 1.46% 3.9% 101% 1088125 4.38 V
2026-09-02 04:33:08 LRX1 1010.08 hPa 44.13% 20.97°C
2026-09-02 04:33:08 LRX1 1010.08 hPa 44.13% 20.97°C
2026-09-02 04:33:03 LRX1 1010.08 hPa 44.13% 20.97°C
2026-09-02 04:33:03 LRX1 1010.08 hPa 44.13% 20.97°C
2026-09-02 04:33:03 LRX1 1010.08 hPa 44.13% 20.97°C
2026-09-02 04:32:55 LRX1 1.32% 6.3% 101% 8115031 4.84 V
2026-09-02 04:32:54 LRX1 1.32% 6.3% 101% 8115031 4.84 V
2026-09-02 04:32:53 LRX1 1.32% 6.3% 101% 8115031 4.84 V
2026-09-02 04:32:50 LRX1 1.32% 6.3% 101% 8115031 4.84 V
2026-09-02 04:32:50 LRX1 1.32% 6.3% 101% 8115031 4.84 V
2026-09-02 04:32:31 EN05 0.2% 4.5% 26% 37026 3.49 V
2026-09-02 04:32:16 BB04 1.08% 13.9% 101% 803702 -0.0 V
2026-09-02 04:32:16 BB04 1.08% 13.9% 101% 803702 -0.0 V
2026-09-02 04:32:15 BB04 1.08% 13.9% 101% 803702 -0.0 V
2026-09-02 04:32:15 BB04 1.08% 13.9% 101% 803702 -0.0 V
2026-09-02 04:32:02 LML2 0.3% 1.3% 100% 464494 4.14 V
2026-09-02 04:32:02 LML2 0.3% 1.3% 100% 464494 4.14 V
2026-09-02 04:31:43 Rhee 0.87% 6.4% 95% 202959 4.05 V
2026-09-02 04:31:42 Rhee 0.87% 6.4% 95% 202959 4.05 V
2026-09-02 04:31:42 Rhee 0.87% 6.4% 95% 202959 4.05 V
2026-09-02 04:31:32 IIXF 859.04 hPa 58.03% 13.26°C 87.18 Ohm
2026-09-02 04:31:31 IIXF 859.04 hPa 58.03% 13.26°C 87.18 Ohm
2026-09-02 04:31:19 RF03 0.04% 1.6% 99% 1111103 4.19 V
2026-09-02 04:31:19 RF03 0.04% 1.6% 99% 1111103 4.19 V
2026-09-02 04:31:19 RF03 0.04% 1.6% 99% 1111103 4.19 V
2026-09-02 04:31:12 RF03 0.04% 1.6% 99% 1111103 4.19 V
2026-09-02 04:31:12 RF03 0.04% 1.6% 99% 1111103 4.19 V
2026-09-02 04:31:12 RF03 0.04% 1.6% 99% 1111103 4.19 V
2026-09-02 04:28:49 RF01 0.21% 3.7% 101% 1341333 4.2 V
2026-09-02 04:28:48 RF01 0.21% 3.7% 101% 1341333 4.2 V
2026-09-02 04:28:48 RF01 0.21% 3.7% 101% 1341333 4.2 V
2026-09-02 04:27:19 PMT2 20.88°C
2026-09-02 04:27:19 PMT2 20.88°C
2026-09-02 04:27:16 PMT2 20.88°C
2026-09-02 04:27:11 PMT2 1.5% 1.0% 101% 1720889 4.2 V
2026-09-02 04:27:11 PMT2 1.5% 1.0% 101% 1720889 4.2 V
2026-09-02 04:27:08 PMT2 1.5% 1.0% 101% 1720889 4.2 V
2026-09-02 04:27:06 PMT2 1.5% 1.0% 101% 1720889 4.2 V
2026-09-02 04:27:05 PMT2 1.5% 1.0% 101% 1720889 4.2 V
2026-09-02 04:25:52 EEPa 0.28% 0.0% 100% 6751839 4.14 V
2026-09-02 04:25:52 EEPa 0.28% 0.0% 100% 6751839 4.14 V
2026-09-02 04:22:34 TG08 20.76°C
2026-09-02 04:22:34 TG08 0.33% 1.7% 90% 319576 4.05 V
2026-09-02 04:20:51 DJMH 0.29% 3.4% 83% 16839986 4.01 V
2026-09-02 04:20:51 DJMH 0.29% 3.4% 83% 16839986 4.01 V
2026-09-02 04:18:47 EEPr 0.4% 3.0% 101% 2224227 4.34 V
2026-09-02 04:18:47 EEPr 0.4% 3.0% 101% 2224227 4.34 V
2026-09-02 04:15:41 ah01 1.01% 1.0% 96% 6112055 4.14 V
2026-09-02 04:15:40 ah01 1.01% 1.0% 96% 6112055 4.14 V
2026-09-02 04:15:37 ah01 1.01% 1.0% 96% 6112055 4.14 V
2026-09-02 04:15:37 ah01 1.01% 1.0% 96% 6112055 4.14 V
2026-09-02 04:14:57 7274 1.09% 1.6% 100% 2328900 4.13 V
2026-09-02 04:14:57 7274 1.09% 1.6% 100% 2328900 4.13 V
2026-09-02 04:14:27 ah03
2026-09-02 04:14:26 ah03
2026-09-02 04:14:25 ah03
2026-09-02 04:14:22 ah03
2026-09-02 04:14:22 ah03
2026-09-02 04:14:19 ah03 0.85% 8.4% 74% 3819215 3.93 V
2026-09-02 04:14:17 ah03 0.85% 8.4% 74% 3819215 3.93 V
2026-09-02 04:14:17 ah03 0.85% 8.4% 74% 3819215 3.93 V
2026-09-02 04:12:51 Jim1 1.41% 3.0% 91% 17295497 4.08 V
2026-09-02 04:12:51 Jim1 1.41% 3.0% 91% 17295497 4.08 V
2026-09-02 04:12:51 Jim1 1.41% 3.0% 91% 17295497 4.08 V
2026-09-02 04:12:27 IIXF 1.46% 2.8% 97% 1086865 4.15 V
2026-09-02 04:12:27 IIXF 1.46% 2.8% 97% 1086865 4.15 V
2026-09-02 04:12:14 J8ke 1.42% 11.6% 101% 141814 5.04 V
2026-09-02 04:12:14 J8ke 1.42% 11.6% 101% 141814 5.04 V
2026-09-02 04:12:14 J8ke 1.42% 11.6% 101% 141814 5.04 V
2026-09-02 04:11:04 J8ke 0.38 V
2026-09-02 04:11:04 J8ke 0.38 V
2026-09-02 04:11:04 J8ke 0.38 V
2026-09-02 04:10:32 IIXF 858.99 hPa 55.72% 14.14°C 95.5 Ohm
2026-09-02 04:10:31 IIXF 858.99 hPa 55.72% 14.14°C 95.5 Ohm
2026-09-02 04:09:05 LRX1 1010.29 hPa 44.3% 20.94°C
2026-09-02 04:09:05 LRX1 1010.29 hPa 44.3% 20.94°C
2026-09-02 04:08:59 LRX1 1010.29 hPa 44.3% 20.94°C
2026-09-02 04:08:58 LRX1 1010.29 hPa 44.3% 20.94°C
2026-09-02 04:08:56 LRX1 1.24% 6.0% 101% 8113591 4.84 V
2026-09-02 04:08:51 LRX1 1.24% 6.0% 101% 8113591 4.84 V
2026-09-02 04:08:51 LRX1 1010.29 hPa 44.3% 20.94°C
2026-09-02 04:08:50 LRX1 1.24% 6.0% 101% 8113591 4.84 V
2026-09-02 04:03:20 ah02 73.47% 15.01°C
2026-09-02 04:03:19 ah02 73.47% 15.01°C
2026-09-02 04:03:16 PMT2 20.93°C
2026-09-02 04:03:16 ah02 73.47% 15.01°C
2026-09-02 04:03:16 PMT2 20.93°C
2026-09-02 04:03:16 ah02 73.47% 15.01°C
2026-09-02 04:03:07 PMT2 1.6% 9.4% 101% 1719448 4.2 V
2026-09-02 04:03:05 PMT2 1.6% 9.4% 101% 1719448 4.2 V
2026-09-02 04:03:05 PMT2 1.6% 9.4% 101% 1719448 4.2 V
2026-09-02 04:02:52 ah02 0.04% 11.7% 59% 61 3.79 V
2026-09-02 04:02:48 ah02 0.04% 11.7% 59% 61 3.79 V
2026-09-02 04:02:48 ah02 0.04% 11.7% 59% 61 3.79 V
2026-09-02 04:02:28 EN05 0.29% 3.0% 27% 35225 3.51 V
2026-09-02 04:02:14 LMGB 0.3% 0.6% 101% 937678 -0.0 V
2026-09-02 04:02:14 LMGB 0.3% 0.6% 101% 937678 -0.0 V
2026-09-02 04:01:47 EEPa 854.92 hPa 49.96% 21.57°C
2026-09-02 04:01:47 EEPa 854.92 hPa 49.96% 21.57°C
2026-09-02 04:01:14 RF03 0.09% 0.0% 99% 1109302 4.18 V
2026-09-02 04:01:14 RF03 0.09% 0.0% 99% 1109302 4.18 V
2026-09-02 04:01:11 RF03 0.09% 0.0% 99% 1109302 4.18 V
2026-09-02 04:01:11 RF03 0.09% 0.0% 99% 1109302 4.18 V
2026-09-02 04:01:11 RF03 0.09% 0.0% 99% 1109302 4.18 V
2026-09-02 03:58:02 PTRH 0.32% 0.0% 60% 1351033 3.8 V
2026-09-02 03:58:01 PTRH 0.32% 0.0% 60% 1351033 3.8 V
2026-09-02 03:57:04 EN11 0.06% 0.0% 101% 63412 4.11 V
2026-09-02 03:57:04 EN11 0.06% 0.0% 101% 63412 4.11 V
2026-09-02 03:56:02 LML2 0.29% 0.0% 100% 462334 4.14 V
2026-09-02 03:56:01 LML2 0.29% 0.0% 100% 462334 4.14 V
2026-09-02 03:55:13 DOS 1.3% 0.0% 101% 147074 4.24 V
2026-09-02 03:55:12 DOS 1.3% 0.0% 101% 147074 4.24 V
2026-09-02 03:55:09 DOS 1.3% 0.0% 101% 147074 4.24 V
2026-09-02 03:55:09 DOS 1.3% 0.0% 101% 147074 4.24 V
2026-09-02 03:55:05 DOS 1.3% 0.0% 101% 147074 4.24 V
2026-09-02 03:55:04 DOS 1.3% 0.0% 101% 147074 4.24 V
2026-09-02 03:54:49 tge0 2.03% 10.4% 94% 9760190 4.11 V
2026-09-02 03:54:49 tge0 2.03% 10.4% 94% 9760190 4.11 V
2026-09-02 03:54:47 tge0 2.03% 10.4% 94% 9760190 4.11 V
2026-09-02 03:54:47 tge0 2.03% 10.4% 94% 9760190 4.11 V
2026-09-02 03:54:27 IIXF 1.44% 2.8% 98% 1085785 4.17 V
2026-09-02 03:54:27 IIXF 1.44% 2.8% 98% 1085785 4.17 V
2026-09-02 03:52:33 TG08 0.39% 2.1% 90% 317775 4.05 V
2026-09-02 03:52:33 TG08 20.94°C
2026-09-02 03:52:32 IIXF 858.93 hPa 54.11% 14.54°C 94.45 Ohm
2026-09-02 03:52:31 IIXF 858.93 hPa 54.11% 14.54°C 94.45 Ohm
2026-09-02 03:52:18 5RC 1012.57 hPa 71.69% 17.81°C
2026-09-02 03:52:12 5RC 3.09% 6.2% 93% 296679 4.1 V
2026-09-02 03:52:12 5RC 3.09% 6.2% 93% 296679 4.1 V
2026-09-02 03:52:11 5RC 1012.57 hPa 71.69% 17.81°C
2026-09-02 03:52:11 5RC 1012.57 hPa 71.69% 17.81°C
2026-09-02 03:51:40 ah01 0.85% 2.0% 96% 6110614 4.15 V
2026-09-02 03:51:40 ah01 0.85% 2.0% 96% 6110614 4.15 V
2026-09-02 03:51:36 ah01 0.85% 2.0% 96% 6110614 4.15 V
2026-09-02 03:51:35 ah01 0.85% 2.0% 96% 6110614 4.15 V
2026-09-02 03:50:52 DJMH 0.35% 0.0% 84% 16838186 4.02 V
2026-09-02 03:50:52 DJMH 0.35% 0.0% 84% 16838186 4.02 V
2026-09-02 03:48:41 EEPr 0.3% 0.0% 101% 2222420 4.34 V
2026-09-02 03:48:41 EEPr 0.3% 0.0% 101% 2222420 4.34 V
2026-09-02 03:47:28 EN01 0.15% 0.0% 86% 137621 4.03 V
2026-09-02 03:47:28 EN01 0.15% 0.0% 86% 137621 4.03 V
2026-09-02 03:47:22 EN01 0.15% 0.0% 86% 137621 4.03 V
2026-09-02 03:47:22 EN01 0.15% 0.0% 86% 137621 4.03 V
2026-09-02 03:45:05 dc64 0.25% 2.0% 93% 1229713 4.1 V
2026-09-02 03:45:05 dc64 0.25% 2.0% 93% 1229713 4.1 V
2026-09-02 03:44:59 LRX1 1010.53 hPa 43.91% 21.05°C
2026-09-02 03:44:57 LRX1 1.37% 10.9% 101% 8112151 4.85 V
2026-09-02 03:44:57 LRX1 1.37% 10.9% 101% 8112151 4.85 V
2026-09-02 03:44:55 LRX1 1.37% 10.9% 101% 8112151 4.85 V
2026-09-02 03:44:52 LRX1 1010.53 hPa 43.91% 21.05°C
2026-09-02 03:44:50 LRX1 1.37% 10.9% 101% 8112151 4.85 V
2026-09-02 03:44:50 LRX1 1.37% 10.9% 101% 8112151 4.85 V
2026-09-02 03:43:56 ah03
2026-09-02 03:43:54 ah03 696.34 hPa 74.97% 27.0°C
2026-09-02 03:43:54 ah03 696.34 hPa 74.97% 27.0°C
2026-09-02 03:43:52 ah03 696.34 hPa 74.97% 27.0°C
2026-09-02 03:43:51 ah03 0.85% 9.7% 74% 3817384 3.93 V
2026-09-02 03:43:50 ah03 0.85% 9.7% 74% 3817384 3.93 V
2026-09-02 03:43:49 ah03 0.85% 9.7% 74% 3817384 3.93 V
2026-09-02 03:43:49 ah03 696.34 hPa 74.97% 27.0°C
2026-09-02 03:43:47 ah03 0.85% 9.7% 74% 3817384 3.93 V
2026-09-02 03:43:46 ah03 0.85% 9.7% 74% 3817384 3.93 V
2026-09-02 03:43:41 Rhee 0.64% 3.2% 95% 200079 4.06 V
2026-09-02 03:43:41 Rhee 0.64% 3.2% 95% 200079 4.06 V
2026-09-02 03:43:40 Rhee 0.64% 3.2% 95% 200079 4.06 V
2026-09-02 03:41:05 RF01 0.15% 1.8% 101% 1338453 4.25 V
2026-09-02 03:41:05 RF01 0.15% 1.8% 101% 1338453 4.25 V
2026-09-02 03:41:05 RF01 0.15% 1.8% 101% 1338453 4.25 V
2026-09-02 03:41:02 EN06 0.02% 0.0% 85% 41698 4.02 V
2026-09-02 03:41:02 EN06 0.02% 0.0% 85% 41698 4.02 V
2026-09-02 03:40:49 RF01 0.15% 1.8% 101% 1338453 4.25 V
2026-09-02 03:40:48 RF01 0.15% 1.8% 101% 1338453 4.25 V
2026-09-02 03:40:48 RF01 0.15% 1.8% 101% 1338453 4.25 V
2026-09-02 03:39:22 PMT2 20.92°C
2026-09-02 03:39:21 PMT2 20.92°C
2026-09-02 03:39:17 PMT2 20.92°C
2026-09-02 03:39:16 PMT2 20.92°C
2026-09-02 03:39:15 PMT2 20.92°C
2026-09-02 03:39:09 PMT2 1.59% 0.0% 101% 1718007 4.2 V
2026-09-02 03:39:08 PMT2 1.59% 0.0% 101% 1718007 4.2 V
2026-09-02 03:39:06 PMT2 1.59% 0.0% 101% 1718007 4.2 V
2026-09-02 03:39:04 PMT2 1.59% 0.0% 101% 1718007 4.2 V
2026-09-02 03:39:04 PMT2 1.59% 0.0% 101% 1718007 4.2 V
2026-09-02 03:38:57 7274 1.11% 1.6% 100% 2326740 4.11 V
2026-09-02 03:38:56 7274 1.11% 1.6% 100% 2326740 4.11 V
2026-09-02 03:36:27 IIXF 1.44% 3.9% 95% 1084705 4.13 V
2026-09-02 03:36:27 IIXF 1.44% 3.9% 95% 1084705 4.13 V
2026-09-02 03:34:32 IIXF 858.94 hPa 54.2% 14.55°C 102.95 Ohm
2026-09-02 03:34:31 IIXF 858.94 hPa 54.2% 14.55°C 102.95 Ohm
2026-09-02 03:32:28 EN05 0.33% 3.4% 29% 33425 3.52 V
2026-09-02 03:32:28 EN05 0.33% 3.4% 29% 33425 3.52 V
2026-09-02 03:32:08 htec 2.64% 6.1% 101% 85091 4.25 V
2026-09-02 03:32:08 htec 2.64% 6.1% 101% 85091 4.25 V
2026-09-02 03:32:08 htec 2.64% 6.1% 101% 85091 4.25 V
2026-09-02 03:32:03 htec 2.64% 6.1% 101% 85091 4.25 V
2026-09-02 03:32:03 htec 2.64% 6.1% 101% 85091 4.25 V
2026-09-02 03:31:15 RF03 0.09% 0.0% 99% 1107501 4.19 V
2026-09-02 03:31:14 RF03 0.09% 0.0% 99% 1107501 4.19 V
2026-09-02 03:31:14 RF03 0.09% 0.0% 99% 1107501 4.19 V
2026-09-02 03:31:11 RF03 0.09% 0.0% 99% 1107501 4.19 V
2026-09-02 03:31:10 RF03 0.09% 0.0% 99% 1107501 4.19 V
2026-09-02 03:31:10 RF03 0.09% 0.0% 99% 1107501 4.19 V
2026-09-02 03:26:14 LMGB 0.28% 2.2% 101% 935518 -0.0 V
2026-09-02 03:26:13 LMGB 0.28% 2.2% 101% 935518 -0.0 V
2026-09-02 03:25:40 EEPa 855.0 hPa 49.53% 21.77°C
2026-09-02 03:25:39 EEPa 855.0 hPa 49.53% 21.77°C
2026-09-02 03:23:02 J8ke 0.38 V
2026-09-02 03:23:01 J8ke 0.38 V
2026-09-02 03:23:01 J8ke 0.38 V
2026-09-02 03:22:32 TG08 20.94°C
2026-09-02 03:22:32 TG08 0.31% 0.0% 91% 315973 4.06 V
2026-09-02 03:22:01 PTRH 0.36% 0.0% 50% 1348873 3.73 V
2026-09-02 03:22:01 PTRH 0.36% 0.0% 50% 1348873 3.73 V
2026-09-02 03:21:01 LRX1 1010.59 hPa 44.28% 21.01°C
2026-09-02 03:21:00 LRX1 1010.59 hPa 44.28% 21.01°C
2026-09-02 03:20:59 LRX1 1.33% 4.0% 101% 8110711 4.84 V
2026-09-02 03:20:58 LRX1 1.33% 4.0% 101% 8110711 4.84 V
2026-09-02 03:20:56 LRX1 1.33% 4.0% 101% 8110711 4.84 V
2026-09-02 03:20:52 DJMH 0.31% 2.8% 85% 16836385 4.02 V
2026-09-02 03:20:52 DJMH 0.31% 2.8% 85% 16836385 4.02 V
2026-09-02 03:20:51 LRX1 1010.59 hPa 44.28% 21.01°C
2026-09-02 03:20:50 LRX1 1.33% 4.0% 101% 8110711 4.84 V
2026-09-02 03:20:50 LRX1 1.33% 4.0% 101% 8110711 4.84 V
2026-09-02 03:20:01 LML2 0.28% 0.0% 100% 460173 4.14 V
2026-09-02 03:20:01 LML2 0.28% 0.0% 100% 460173 4.14 V
2026-09-02 03:19:38 Rhee 0.78% 6.7% 95% 198639 4.06 V
2026-09-02 03:19:37 Rhee 0.78% 6.7% 95% 198639 4.06 V
2026-09-02 03:19:37 Rhee 0.78% 6.7% 95% 198639 4.06 V
2026-09-02 03:18:35 EEPr 0.36% 0.0% 101% 2220614 4.34 V
2026-09-02 03:18:35 EEPr 0.36% 0.0% 101% 2220614 4.34 V
2026-09-02 03:18:27 IIXF 1.42% 3.3% 90% 1083625 4.05 V
2026-09-02 03:18:27 IIXF 1.42% 3.3% 90% 1083625 4.05 V
2026-09-02 03:16:31 IIXF 858.86 hPa 54.43% 14.18°C 96.07 Ohm
2026-09-02 03:16:31 IIXF 858.86 hPa 54.43% 14.18°C 96.07 Ohm
2026-09-02 03:14:07 PMT2 1.62% 6.8% 101% 1716507 4.2 V
2026-09-02 03:14:07 PMT2 1.62% 6.8% 101% 1716507 4.2 V
2026-09-02 03:14:05 PMT2 1.62% 6.8% 101% 1716507 4.2 V
2026-09-02 03:14:04 PMT2 1.62% 6.8% 101% 1716507 4.2 V
2026-09-02 03:14:03 PMT2 1.62% 6.8% 101% 1716507 4.2 V
2026-09-02 03:13:35 ah03 696.34 hPa 74.48% 27.0°C
2026-09-02 03:13:35 ah03 696.34 hPa 74.48% 27.0°C
2026-09-02 03:13:33 ah03 696.34 hPa 74.48% 27.0°C
2026-09-02 03:13:31 ah03 696.34 hPa 74.48% 27.0°C
2026-09-02 03:13:31 ah03 696.34 hPa 74.48% 27.0°C
2026-09-02 03:13:19 PMT2 20.64°C
2026-09-02 03:13:18 PMT2 20.64°C
2026-09-02 03:13:17 PMT2 20.64°C
2026-09-02 03:13:15 PMT2 20.64°C
2026-09-02 03:13:15 PMT2 20.64°C
2026-09-02 03:07:16 DOS 1.11% 2.3% 101% 144194 4.23 V
2026-09-02 03:07:16 DOS 1.11% 2.3% 101% 144194 4.23 V
2026-09-02 03:07:02 DOS 1.11% 2.3% 101% 144194 4.23 V
2026-09-02 03:07:02 DOS 1.11% 2.3% 101% 144194 4.23 V
2026-09-02 03:03:36 ah01 1.0% 0.0% 96% 6107731 4.15 V
2026-09-02 03:03:33 ah01 1.0% 0.0% 96% 6107731 4.15 V
2026-09-02 03:03:33 ah01 1.0% 0.0% 96% 6107731 4.15 V
2026-09-02 03:02:56 7274 1.18% 1.1% 100% 2324580 4.11 V
2026-09-02 03:02:56 7274 1.18% 1.1% 100% 2324580 4.11 V
2026-09-02 03:02:31 EN05 0.27% 5.2% 30% 31624 3.54 V
2026-09-02 03:01:15 RF03 0.05% 1.7% 99% 1105701 4.19 V
2026-09-02 03:01:15 RF03 0.05% 1.7% 99% 1105701 4.19 V
2026-09-02 03:01:15 RF03 0.05% 1.7% 99% 1105701 4.19 V
2026-09-02 03:01:10 RF03 0.05% 1.7% 99% 1105701 4.19 V
2026-09-02 03:01:09 RF03 0.05% 1.7% 99% 1105701 4.19 V
2026-09-02 03:01:09 RF03 0.05% 1.7% 99% 1105701 4.19 V
2026-09-02 03:00:51 ah02 67.84% 15.67°C
2026-09-02 03:00:48 ah02 67.84% 15.67°C
2026-09-02 03:00:48 ah02 67.84% 15.67°C
2026-09-02 03:00:45 ah02 67.84% 15.67°C
2026-09-02 03:00:45 ah02 67.84% 15.67°C
2026-09-02 03:00:27 ah02 0.04% 8.8% 60% 60 3.8 V
2026-09-02 03:00:21 ah02 0.04% 8.8% 60% 60 3.8 V
2026-09-02 03:00:20 ah02 0.04% 8.8% 60% 60 3.8 V
2026-09-02 03:00:18 J8ke 1.29% 0.0% 101% 137478 5.04 V
2026-09-02 03:00:18 J8ke 1.29% 0.0% 101% 137478 5.04 V
2026-09-02 03:00:18 J8ke 1.29% 0.0% 101% 137478 5.04 V
2026-09-02 02:57:27 IIXF 1.47% 4.4% 63% 1082365 3.83 V
2026-09-02 02:57:27 IIXF 1.47% 4.4% 63% 1082365 3.83 V
2026-09-02 02:57:08 LRX1 1.38% 3.0% 101% 8109270 4.81 V
2026-09-02 02:57:07 LRX1 1.38% 3.0% 101% 8109270 4.81 V
2026-09-02 02:57:07 LRX1 1.38% 3.0% 101% 8109270 4.81 V
2026-09-02 02:57:06 LRX1 1.38% 3.0% 101% 8109270 4.81 V
2026-09-02 02:57:04 EN11 0.2% 0.0% 101% 59809 4.11 V
2026-09-02 02:57:03 EN11 0.2% 0.0% 101% 59809 4.11 V
2026-09-02 02:56:58 LRX1 1010.95 hPa 44.14% 21.04°C
2026-09-02 02:56:55 LRX1 1010.95 hPa 44.14% 21.04°C
2026-09-02 02:56:55 LRX1 1010.95 hPa 44.14% 21.04°C
2026-09-02 02:56:51 LRX1 1010.95 hPa 44.14% 21.04°C
2026-09-02 02:56:51 LRX1 1010.95 hPa 44.14% 21.04°C
2026-09-02 02:55:38 Rhee 0.87% 6.6% 95% 197199 4.07 V
2026-09-02 02:55:37 Rhee 0.87% 6.6% 95% 197199 4.07 V
2026-09-02 02:55:37 Rhee 0.87% 6.6% 95% 197199 4.07 V
2026-09-02 02:55:31 IIXF 859.01 hPa 52.53% 14.72°C 98.9 Ohm
2026-09-02 02:55:31 IIXF 859.01 hPa 52.53% 14.72°C 98.9 Ohm
2026-09-02 02:52:58 RF01 0.46% 2.4% 101% 1335573 4.24 V
2026-09-02 02:52:57 RF01 0.46% 2.4% 101% 1335573 4.24 V
2026-09-02 02:52:57 RF01 0.46% 2.4% 101% 1335573 4.24 V
2026-09-02 02:52:48 RF01 0.46% 2.4% 101% 1335573 4.24 V
2026-09-02 02:52:48 RF01 0.46% 2.4% 101% 1335573 4.24 V
2026-09-02 02:52:48 RF01 0.46% 2.4% 101% 1335573 4.24 V
2026-09-02 02:52:31 TG08 0.23% 0.0% 92% 314172 4.08 V
2026-09-02 02:52:31 TG08 21.16°C
2026-09-02 02:50:13 LMGB 0.28% 1.1% 101% 933358 -0.0 V
2026-09-02 02:50:13 LMGB 0.28% 1.1% 101% 933358 -0.0 V
2026-09-02 02:48:29 EEPr 0.49% 0.0% 101% 2218808 4.34 V
2026-09-02 02:48:28 EEPr 0.49% 0.0% 101% 2218808 4.34 V
2026-09-02 02:47:20 EN01 0.25% 0.0% 87% 134020 4.03 V
2026-09-02 02:47:19 EN01 0.25% 0.0% 87% 134020 4.03 V
2026-09-02 02:46:05 PTRH 0.37% 0.0% 54% 1346712 3.75 V
2026-09-02 02:46:04 PTRH 0.37% 0.0% 54% 1346712 3.75 V
2026-09-02 02:46:01 PTRH 0.37% 0.0% 54% 1346712 3.75 V
2026-09-02 02:46:01 PTRH 0.37% 0.0% 54% 1346712 3.75 V
2026-09-02 02:44:16 BB04 0.88% 4.7% 101% 797221 -0.0 V
2026-09-02 02:44:15 BB04 0.88% 4.7% 101% 797221 -0.0 V
2026-09-02 02:44:15 BB04 0.88% 4.7% 101% 797221 -0.0 V
2026-09-02 02:44:03 PMT2 1.73% 2.7% 101% 1714706 4.2 V
2026-09-02 02:44:03 PMT2 1.73% 2.7% 101% 1714706 4.2 V
2026-09-02 02:44:01 LML2 0.27% 0.0% 100% 458013 4.14 V
2026-09-02 02:44:00 LML2 0.27% 0.0% 100% 458013 4.14 V
2026-09-02 02:43:31 EEPa 855.23 hPa 48.78% 21.94°C
2026-09-02 02:43:31 EEPa 855.23 hPa 48.78% 21.94°C
2026-09-02 02:43:18 PMT2 20.92°C
2026-09-02 02:43:18 PMT2 20.92°C
2026-09-02 02:43:16 PMT2 20.92°C
2026-09-02 02:43:14 PMT2 20.92°C
2026-09-02 02:43:14 PMT2 20.92°C
2026-09-02 02:43:00 ah03 696.34 hPa 73.78% 27.0°C
2026-09-02 02:42:58 ah03 696.34 hPa 73.78% 27.0°C
2026-09-02 02:42:58 ah03 696.34 hPa 73.78% 27.0°C
2026-09-02 02:42:52 ah03 0.85% 5.1% 74% 3813714 3.94 V
2026-09-02 02:42:50 ah03 0.85% 5.1% 74% 3813714 3.94 V
2026-09-02 02:42:50 ah03 0.85% 5.1% 74% 3813714 3.94 V
2026-09-02 02:42:46 ah03 0.85% 5.1% 74% 3813714 3.94 V
2026-09-02 02:42:46 ah03 0.85% 5.1% 74% 3813714 3.94 V
2026-09-02 02:40:56 EN06 0.05% 8.8% 86% 38097 4.03 V
2026-09-02 02:37:30 EEPa 0.35% 0.0% 100% 6745337 4.14 V
2026-09-02 02:37:30 EEPa 0.35% 0.0% 100% 6745337 4.14 V
2026-09-02 02:36:27 IIXF 1.43% 2.8% 93% 1081104 4.09 V
2026-09-02 02:36:27 IIXF 1.43% 2.8% 93% 1081104 4.09 V
2026-09-02 02:34:47 J8ke 0.38 V
2026-09-02 02:34:46 J8ke 0.38 V
2026-09-02 02:34:46 J8ke 0.38 V
2026-09-02 02:34:31 IIXF 859.04 hPa 47.15% 16.69°C 110.03 Ohm
2026-09-02 02:34:31 IIXF 859.04 hPa 47.15% 16.69°C 110.03 Ohm
2026-09-02 02:32:55 LRX1 1011.41 hPa 44.18% 21.06°C
2026-09-02 02:32:55 LRX1 1.23% 3.0% 101% 8107830 4.84 V
2026-09-02 02:32:55 LRX1 1.23% 3.0% 101% 8107830 4.84 V
2026-09-02 02:32:51 LRX1 1011.41 hPa 44.18% 21.06°C
2026-09-02 02:32:50 LRX1 1.23% 3.0% 101% 8107830 4.84 V
2026-09-02 02:32:50 LRX1 1.23% 3.0% 101% 8107830 4.84 V
2026-09-02 02:32:27 EN05 0.64% 3.4% 32% 29823 3.55 V
2026-09-02 02:31:13 RF03 0.17% 0.0% 100% 1103900 4.19 V
2026-09-02 02:31:13 RF03 0.17% 0.0% 100% 1103900 4.19 V
2026-09-02 02:31:13 RF03 0.17% 0.0% 100% 1103900 4.19 V
2026-09-02 02:31:09 RF03 0.17% 0.0% 100% 1103900 4.19 V
2026-09-02 02:31:09 RF03 0.17% 0.0% 100% 1103900 4.19 V
2026-09-02 02:31:09 RF03 0.17% 0.0% 100% 1103900 4.19 V
2026-09-02 02:26:56 7274 1.18% 1.1% 100% 2322420 4.11 V
2026-09-02 02:26:56 7274 1.18% 1.1% 100% 2322420 4.11 V
2026-09-02 02:26:07 RLSC 1001.5 hPa 69.11% 9.55°C
2026-09-02 02:26:07 RLSC 1001.5 hPa 69.11% 9.55°C
2026-09-02 02:24:53 Jim1 1.4% 6.3% 90% 17289016 4.06 V
2026-09-02 02:24:51 Jim1 1.4% 6.3% 90% 17289016 4.06 V
2026-09-02 02:24:51 Jim1 1.4% 6.3% 90% 17289016 4.06 V
2026-09-02 02:24:51 Jim1 1.4% 6.3% 90% 17289016 4.06 V
2026-09-02 02:24:05 EN60 1.56% 18.2% 90% 218726 4.05 V
2026-09-02 02:24:05 EN60 1.56% 18.2% 90% 218726 4.05 V
2026-09-02 02:22:30 TG08 21.3°C
2026-09-02 02:22:29 TG08 0.36% 0.0% 93% 312371 4.09 V
2026-09-02 02:21:20 dc64 0.1% 0.0% 95% 1224673 4.12 V
2026-09-02 02:21:20 dc64 0.1% 0.0% 95% 1224673 4.12 V
2026-09-02 02:20:55 htec 3.03% 7.3% 101% 80817 4.27 V
2026-09-02 02:20:54 htec 3.03% 7.3% 101% 80817 4.27 V
2026-09-02 02:20:49 htec 3.03% 7.3% 101% 80817 4.27 V
2026-09-02 02:20:48 htec 3.03% 7.3% 101% 80817 4.27 V
2026-09-02 02:20:45 DJMH 0.32% 0.0% 85% 16832785 4.02 V
2026-09-02 02:20:45 DJMH 0.32% 0.0% 85% 16832785 4.02 V
2026-09-02 02:20:10 PMT2 1.74% 5.1% 101% 1713266 4.2 V
2026-09-02 02:20:10 PMT2 1.74% 5.1% 101% 1713266 4.2 V
2026-09-02 02:20:05 PMT2 1.74% 5.1% 101% 1713266 4.2 V
2026-09-02 02:20:03 5RC 1012.96 hPa 70.24% 18.84°C
2026-09-02 02:20:03 PMT2 1.74% 5.1% 101% 1713266 4.2 V
2026-09-02 02:20:02 PMT2 1.74% 5.1% 101% 1713266 4.2 V
2026-09-02 02:20:00 5RC 3.56% 6.2% 101% 291154 4.3 V
2026-09-02 02:20:00 5RC 3.56% 6.2% 101% 291154 4.3 V
2026-09-02 02:19:16 PMT2 21.12°C
2026-09-02 02:19:14 PMT2 21.12°C
2026-09-02 02:19:14 PMT2 21.12°C
2026-09-02 02:19:11 DOS 1.34% 2.1% 101% 141313 4.22 V
2026-09-02 02:19:10 DOS 1.34% 2.1% 101% 141313 4.22 V
2026-09-02 02:19:09 DOS 1.34% 2.1% 101% 141313 4.22 V
2026-09-02 02:19:03 DOS 1.34% 2.1% 101% 141313 4.22 V
2026-09-02 02:19:02 DOS 1.34% 2.1% 101% 141313 4.22 V
2026-09-02 02:18:30 ah01 0.93% 0.0% 96% 6105025 4.15 V
2026-09-02 02:18:27 ah01 0.93% 0.0% 96% 6105025 4.15 V
2026-09-02 02:18:27 ah01 0.93% 0.0% 96% 6105025 4.15 V
2026-09-02 02:18:22 EEPr 0.51% 0.0% 101% 2217002 4.34 V
2026-09-02 02:18:22 EEPr 0.51% 0.0% 101% 2217002 4.34 V
2026-09-02 02:15:27 IIXF 1.4% 5.1% 62% 1079844 3.82 V
2026-09-02 02:15:27 IIXF 1.4% 5.1% 62% 1079844 3.82 V
2026-09-02 02:14:13 LMGB 0.26% 1.1% 101% 931197 -0.0 V
2026-09-02 02:14:13 LMGB 0.26% 1.1% 101% 931197 -0.0 V
2026-09-02 02:13:31 IIXF 859.15 hPa 51.42% 14.89°C 103.59 Ohm
2026-09-02 02:13:31 IIXF 859.15 hPa 51.42% 14.89°C 103.59 Ohm
2026-09-02 02:12:51 ah03
2026-09-02 02:12:51 ah03
2026-09-02 02:12:46 ah03
2026-09-02 02:12:46 ah03
2026-09-02 02:12:42 ah03 696.34 hPa 73.3% 27.0°C
2026-09-02 02:12:42 ah03
2026-09-02 02:12:37 ah03 696.34 hPa 73.3% 27.0°C
2026-09-02 02:12:35 ah03 696.34 hPa 73.3% 27.0°C
2026-09-02 02:12:35 ah03 696.34 hPa 73.3% 27.0°C
2026-09-02 02:11:38 J8ke 1.38% 0.0% 101% 134589 5.04 V
2026-09-02 02:11:37 J8ke 1.38% 0.0% 101% 134589 5.04 V
2026-09-02 02:11:37 J8ke 1.38% 0.0% 101% 134589 5.04 V
2026-09-02 02:10:25 PTRH 0.35% 0.0% 53% 1344552 3.74 V
2026-09-02 02:10:24 PTRH 0.35% 0.0% 53% 1344552 3.74 V
2026-09-02 02:10:01 PTRH 0.35% 0.0% 53% 1344552 3.74 V
2026-09-02 02:10:01 PTRH 0.35% 0.0% 53% 1344552 3.74 V
2026-09-02 02:09:03 LRX1 1011.63 hPa 44.03% 21.2°C
2026-09-02 02:09:03 LRX1 1011.63 hPa 44.03% 21.2°C
2026-09-02 02:08:58 LRX1 1.14% 6.2% 101% 8106390 4.83 V
2026-09-02 02:08:58 LRX1 1.14% 6.2% 101% 8106390 4.83 V
2026-09-02 02:08:55 LRX1 1011.63 hPa 44.03% 21.2°C
2026-09-02 02:08:51 LRX1 1011.63 hPa 44.03% 21.2°C
2026-09-02 02:08:50 LRX1 1.14% 6.2% 101% 8106390 4.83 V
2026-09-02 02:08:50 LRX1 1.14% 6.2% 101% 8106390 4.83 V
2026-09-02 02:08:01 LML2 0.28% 0.0% 100% 455853 4.14 V
2026-09-02 02:08:00 LML2 0.28% 0.0% 100% 455853 4.14 V
2026-09-02 02:04:48 RF01 0.19% 5.1% 101% 1332692 4.26 V
2026-09-02 02:04:48 RF01 0.19% 5.1% 101% 1332692 4.26 V
2026-09-02 02:04:47 RF01 0.19% 5.1% 101% 1332692 4.26 V
2026-09-02 02:04:37 2c98 0.05% 0.0% 101% 630293 4.31 V
2026-09-02 02:04:37 2c98 0.05% 0.0% 101% 630293 4.31 V
2026-09-02 02:02:27 EN05 0.68% 0.0% 33% 28023 3.56 V
2026-09-02 02:01:22 EEPa 855.59 hPa 47.77% 22.02°C
2026-09-02 02:01:22 EEPa 855.59 hPa 47.77% 22.02°C
2026-09-02 02:01:16 RF03 0.19% 3.3% 99% 1102099 4.19 V
2026-09-02 02:01:16 RF03 0.19% 3.3% 99% 1102099 4.19 V
2026-09-02 02:01:16 RF03 0.19% 3.3% 99% 1102099 4.19 V
2026-09-02 02:01:08 RF03 0.19% 3.3% 99% 1102099 4.19 V
2026-09-02 02:01:08 RF03 0.19% 3.3% 99% 1102099 4.19 V
2026-09-02 02:01:08 RF03 0.19% 3.3% 99% 1102099 4.19 V
2026-09-02 01:58:20 ah02 67.84% 15.37°C
2026-09-02 01:58:19 ah02 67.84% 15.37°C
2026-09-02 01:58:14 ah02 67.84% 15.37°C
2026-09-02 01:58:14 ah02 67.84% 15.37°C
2026-09-02 01:58:03 ah02 0.04% 15.4% 60% 61 3.8 V
2026-09-02 01:58:03 ah02 0.04% 15.4% 60% 61 3.8 V
2026-09-02 01:57:58 ah02 0.04% 15.4% 60% 61 3.8 V
2026-09-02 01:57:57 ah02 0.04% 15.4% 60% 61 3.8 V
2026-09-02 01:57:49 ah02 0.04% 15.4% 60% 61 3.8 V
2026-09-02 01:57:49 ah02 0.04% 15.4% 60% 61 3.8 V
2026-09-02 01:56:58 EN11 0.37% 0.0% 101% 56206 4.11 V
2026-09-02 01:56:58 EN11 0.37% 0.0% 101% 56206 4.11 V
2026-09-02 01:56:08 PMT2 1.53% 5.8% 101% 1711825 4.2 V
2026-09-02 01:56:02 PMT2 1.53% 5.8% 101% 1711825 4.2 V
2026-09-02 01:56:02 PMT2 1.53% 5.8% 101% 1711825 4.2 V
2026-09-02 01:55:15 PMT2 21.29°C
2026-09-02 01:55:13 PMT2 21.29°C
2026-09-02 01:55:13 PMT2 21.29°C
2026-09-02 01:54:28 ah01 0.81% 4.3% 96% 6103584 4.15 V
2026-09-02 01:54:27 IIXF 1.37% 3.3% 71% 1078584 3.9 V
2026-09-02 01:54:27 IIXF 1.37% 3.3% 71% 1078584 3.9 V
2026-09-02 01:54:26 ah01 0.81% 4.3% 96% 6103584 4.15 V
2026-09-02 01:54:26 ah01 0.81% 4.3% 96% 6103584 4.15 V
2026-09-02 01:52:31 IIXF 859.19 hPa 48.73% 15.52°C 107.84 Ohm
2026-09-02 01:52:31 IIXF 859.19 hPa 48.73% 15.52°C 107.84 Ohm
2026-09-02 01:52:29 TG08 21.48°C
2026-09-02 01:52:27 TG08 0.43% 0.0% 93% 310569 4.1 V
2026-09-02 01:50:56 7274 1.12% 1.1% 100% 2320259 4.11 V
2026-09-02 01:50:55 7274 1.12% 1.1% 100% 2320259 4.11 V
2026-09-02 01:48:16 EEPr 0.5% 0.0% 101% 2215196 4.34 V
2026-09-02 01:48:16 EEPr 0.5% 0.0% 101% 2215196 4.34 V
2026-09-02 01:47:20 EN01 0.38% 0.0% 89% 130420 4.05 V
2026-09-02 01:47:19 EN01 0.38% 0.0% 89% 130420 4.05 V
2026-09-02 01:46:35 J8ke
2026-09-02 01:46:35 J8ke
2026-09-02 01:46:35 J8ke
2026-09-02 01:45:02 LRX1 1011.85 hPa 44.14% 21.12°C
2026-09-02 01:44:56 LRX1 0.76% 6.3% 101% 8104950 4.84 V
2026-09-02 01:44:55 LRX1 0.76% 6.3% 101% 8104950 4.84 V
2026-09-02 01:44:55 LRX1 0.76% 6.3% 101% 8104950 4.84 V
2026-09-02 01:44:15 BB04 1.01% 4.9% 101% 793621 -0.0 V
2026-09-02 01:44:14 BB04 1.01% 4.9% 101% 793621 -0.0 V
2026-09-02 01:44:14 BB04 1.01% 4.9% 101% 793621 -0.0 V
2026-09-02 01:44:14 BB04 1.01% 4.9% 101% 793621 -0.0 V
2026-09-02 01:43:37 Rhee 0.65% 5.7% 96% 192878 4.07 V
2026-09-02 01:43:36 Rhee 0.65% 5.7% 96% 192878 4.07 V
2026-09-02 01:43:36 Rhee 0.65% 5.7% 96% 192878 4.07 V
2026-09-02 01:42:00 ah03 696.34 hPa 73.21% 27.0°C
2026-09-02 01:42:00 ah03
2026-09-02 01:41:59 ah03 696.34 hPa 73.21% 27.0°C
2026-09-02 01:41:54 ah03
2026-09-02 01:41:53 ah03 0.85% 6.3% 75% 3810050 3.94 V
2026-09-02 01:41:52 ah03 696.34 hPa 73.21% 27.0°C
2026-09-02 01:41:50 ah03 0.85% 6.3% 75% 3810050 3.94 V
2026-09-02 01:41:47 ah03 0.85% 6.3% 75% 3810050 3.94 V
2026-09-02 01:41:47 ah03 0.85% 6.3% 75% 3810050 3.94 V
2026-09-02 01:40:56 EN06 0.21% 3.5% 87% 34497 4.04 V
2026-09-02 01:38:13 LMGB 0.28% 0.6% 101% 929037 -0.0 V
2026-09-02 01:38:12 LMGB 0.28% 0.6% 101% 929037 -0.0 V
2026-09-02 01:37:44 tge0 2.59% 10.7% 94% 9751970 4.11 V
2026-09-02 01:37:44 tge0 2.59% 10.7% 94% 9751970 4.11 V
2026-09-02 01:37:41 tge0 2.59% 10.7% 94% 9751970 4.11 V
2026-09-02 01:37:40 tge0 2.59% 10.7% 94% 9751970 4.11 V
2026-09-02 01:37:40 tge0 2.59% 10.7% 94% 9751970 4.11 V
2026-09-02 01:36:53 Jim1 1.18% 0.0% 92% 17286136 4.08 V
2026-09-02 01:36:50 Jim1 1.18% 0.0% 92% 17286136 4.08 V
2026-09-02 01:36:50 Jim1 1.18% 0.0% 92% 17286136 4.08 V
2026-09-02 01:36:50 Jim1 1.18% 0.0% 92% 17286136 4.08 V
2026-09-02 01:34:01 PTRH 0.37% 0.0% 51% 1342392 3.73 V
2026-09-02 01:34:00 PTRH 0.37% 0.0% 51% 1342392 3.73 V
2026-09-02 01:33:39 ah01 0.79% 0.0% 96% 6102323 4.14 V
2026-09-02 01:33:39 ah01 0.79% 0.0% 96% 6102323 4.14 V
2026-09-02 01:33:29 ah01 0.79% 0.0% 96% 6102323 4.14 V
2026-09-02 01:33:28 ah01 0.79% 0.0% 96% 6102323 4.14 V
2026-09-02 01:33:27 IIXF 1.4% 6.7% 73% 1077324 3.92 V
2026-09-02 01:33:27 IIXF 1.4% 6.7% 73% 1077324 3.92 V
2026-09-02 01:33:25 ah01 0.79% 0.0% 96% 6102323 4.14 V
2026-09-02 01:33:24 ah01 0.79% 0.0% 96% 6102323 4.14 V
2026-09-02 01:32:25 EN05 0.52% 0.0% 34% 26222 3.58 V
2026-09-02 01:32:07 PMT2 1.37% 8.8% 101% 1710385 4.2 V
2026-09-02 01:32:05 PMT2 1.37% 8.8% 101% 1710385 4.2 V
2026-09-02 01:32:05 PMT2 1.37% 8.8% 101% 1710385 4.2 V
2026-09-02 01:32:02 PMT2 1.37% 8.8% 101% 1710385 4.2 V
2026-09-02 01:32:01 PMT2 1.37% 8.8% 101% 1710385 4.2 V
2026-09-02 01:32:00 LML2 0.27% 0.6% 100% 453692 4.14 V
2026-09-02 01:32:00 LML2 0.27% 0.6% 100% 453692 4.14 V
2026-09-02 01:31:31 IIXF 859.29 hPa 47.32% 16.02°C 123.62 Ohm
2026-09-02 01:31:31 IIXF 859.29 hPa 47.32% 16.02°C 123.62 Ohm
2026-09-02 01:31:20 DOS 1.14% 5.7% 101% 138433 4.22 V
2026-09-02 01:31:20 DOS 1.14% 5.7% 101% 138433 4.22 V
2026-09-02 01:31:19 PMT2 21.37°C
2026-09-02 01:31:18 PMT2 21.37°C
2026-09-02 01:31:15 PMT2 21.37°C
2026-09-02 01:31:13 PMT2 21.37°C
2026-09-02 01:31:13 PMT2 21.37°C
2026-09-02 01:31:11 RF03 0.07% 4.1% 99% 1100298 4.19 V
2026-09-02 01:31:11 RF03 0.07% 4.1% 99% 1100298 4.19 V
2026-09-02 01:31:11 RF03 0.07% 4.1% 99% 1100298 4.19 V
2026-09-02 01:31:08 RF03 0.07% 4.1% 99% 1100298 4.19 V
2026-09-02 01:31:07 RF03 0.07% 4.1% 99% 1100298 4.19 V
2026-09-02 01:31:07 RF03 0.07% 4.1% 99% 1100298 4.19 V
2026-09-02 01:31:02 DOS 1.14% 5.7% 101% 138433 4.22 V
2026-09-02 01:31:01 DOS 1.14% 5.7% 101% 138433 4.22 V
2026-09-02 01:25:15 EEPa 855.85 hPa 46.96% 22.11°C
2026-09-02 01:25:15 EEPa 855.85 hPa 46.96% 22.11°C
2026-09-02 01:23:27 J8ke 1.27% 0.0% 101% 131699 5.04 V
2026-09-02 01:23:27 J8ke 1.27% 0.0% 101% 131699 5.04 V
2026-09-02 01:23:26 J8ke 1.27% 0.0% 101% 131699 5.04 V
2026-09-02 01:22:27 TG08 21.7°C
2026-09-02 01:22:26 TG08 0.38% 1.1% 94% 308768 4.11 V
2026-09-02 01:21:08 DJMH 0.27% 3.4% 86% 16829185 4.03 V
2026-09-02 01:21:07 DJMH 0.27% 3.4% 86% 16829185 4.03 V
2026-09-02 01:20:55 LRX1 0.67% 1.1% 101% 8103510 4.83 V
2026-09-02 01:20:55 LRX1 0.67% 1.1% 101% 8103510 4.83 V
2026-09-02 01:20:50 LRX1 0.67% 1.1% 101% 8103510 4.83 V
2026-09-02 01:20:49 LRX1 0.67% 1.1% 101% 8103510 4.83 V
2026-09-02 01:18:10 EEPr 0.33% 0.0% 101% 2213389 4.34 V
2026-09-02 01:18:10 EEPr 0.33% 0.0% 101% 2213389 4.34 V
2026-09-02 01:16:48 RF01 0.3% 4.1% 101% 1329812 4.25 V
2026-09-02 01:16:47 RF01 0.3% 4.1% 101% 1329812 4.25 V
2026-09-02 01:16:47 RF01 0.3% 4.1% 101% 1329812 4.25 V
2026-09-02 01:12:29 ah01 0.66% 6.6% 97% 6101062 4.15 V
2026-09-02 01:12:27 IIXF 1.38% 2.8% 60% 1076064 3.81 V
2026-09-02 01:12:27 IIXF 1.38% 2.8% 60% 1076064 3.81 V
2026-09-02 01:12:25 ah01 0.66% 6.6% 97% 6101062 4.15 V
2026-09-02 01:12:23 ah01 0.66% 6.6% 97% 6101062 4.15 V
2026-09-02 01:12:23 ah01 0.66% 6.6% 97% 6101062 4.15 V
2026-09-02 01:11:55 ah03 696.34 hPa 75.67% 27.0°C
2026-09-02 01:11:55 ah03 696.34 hPa 75.67% 27.0°C
2026-09-02 01:11:53 htec 3.64% 5.0% 101% 76674 4.29 V
2026-09-02 01:11:53 htec 3.64% 5.0% 101% 76674 4.29 V
2026-09-02 01:11:53 htec 3.64% 5.0% 101% 76674 4.29 V
2026-09-02 01:11:52 ah03 0.85% 4.2% 75% 3808242 3.95 V
2026-09-02 01:11:52 ah03 0.85% 4.2% 75% 3808242 3.95 V
2026-09-02 01:11:49 ah03 696.34 hPa 75.67% 27.0°C
2026-09-02 01:11:47 ah03 696.34 hPa 75.67% 27.0°C
2026-09-02 01:11:46 ah03 696.34 hPa 75.67% 27.0°C
2026-09-02 01:11:46 htec 3.64% 5.0% 101% 76674 4.29 V
2026-09-02 01:11:45 htec 3.64% 5.0% 101% 76674 4.29 V
2026-09-02 01:11:44 ah03 0.85% 4.2% 75% 3808242 3.95 V
2026-09-02 01:11:42 ah03 0.85% 4.2% 75% 3808242 3.95 V
2026-09-02 01:11:41 ah03 0.85% 4.2% 75% 3808242 3.95 V
2026-09-02 01:10:31 IIXF 859.45 hPa 45.75% 16.1°C 123.17 Ohm
2026-09-02 01:10:31 IIXF 859.45 hPa 45.75% 16.1°C 123.17 Ohm
2026-09-02 01:09:16 dc64 0.11% 2.3% 95% 1220353 4.13 V
2026-09-02 01:09:16 dc64 0.11% 2.3% 95% 1220353 4.13 V
2026-09-02 01:08:03 PMT2 1.35% 0.9% 101% 1708944 4.2 V
2026-09-02 01:08:02 PMT2 1.35% 0.9% 101% 1708944 4.2 V
2026-09-02 01:08:01 PMT2 1.35% 0.9% 101% 1708944 4.2 V
2026-09-02 01:07:12 PMT2 21.3°C
2026-09-02 01:07:12 PMT2 21.3°C
2026-09-02 01:02:32 EN58 0.06% 8.8% 101% 65 -0.0 V
2026-09-02 01:02:31 EN58 0.06% 8.8% 101% 65 -0.0 V
2026-09-02 01:02:25 EN05 1.37% 14.5% 35% 24421 3.59 V
2026-09-02 01:02:24 EN05 1.37% 14.5% 35% 24421 3.59 V
2026-09-02 01:02:12 LMGB 0.23% 0.5% 101% 926877 -0.0 V
2026-09-02 01:02:12 LMGB 0.23% 0.5% 101% 926877 -0.0 V
2026-09-02 01:01:11 RF03 0.05% 0.0% 99% 1098498 4.19 V
2026-09-02 01:01:11 RF03 0.05% 0.0% 99% 1098498 4.19 V
2026-09-02 01:01:11 RF03 0.05% 0.0% 99% 1098498 4.19 V
2026-09-02 01:01:07 RF03 0.05% 0.0% 99% 1098498 4.19 V
2026-09-02 01:01:07 RF03 0.05% 0.0% 99% 1098498 4.19 V
2026-09-02 01:01:07 RF03 0.05% 0.0% 99% 1098498 4.19 V
2026-09-02 00:58:01 PTRH 0.33% 2.1% 53% 1340232 3.75 V
2026-09-02 00:58:00 PTRH 0.33% 2.1% 53% 1340232 3.75 V
2026-09-02 00:57:10 LRX1 1012.18 hPa 43.87% 21.19°C
2026-09-02 00:57:09 LRX1 1012.18 hPa 43.87% 21.19°C
2026-09-02 00:56:58 LRX1 1012.18 hPa 43.87% 21.19°C
2026-09-02 00:56:58 EN11 0.4% 4.5% 101% 52603 4.12 V
2026-09-02 00:56:58 LRX1 1012.18 hPa 43.87% 21.19°C
2026-09-02 00:56:57 EN11 0.4% 4.5% 101% 52603 4.12 V
2026-09-02 00:56:52 MSHU 4.98% 14.9% 101% 1162389 4.21 V
2026-09-02 00:56:52 MSHU 4.98% 14.9% 101% 1162389 4.21 V
2026-09-02 00:56:52 MSHU 4.98% 14.9% 101% 1162389 4.21 V
2026-09-02 00:56:00 LML2 0.23% 0.0% 100% 451532 4.14 V
2026-09-02 00:56:00 LML2 0.23% 0.0% 100% 451532 4.14 V
2026-09-02 00:55:51 ah02 66.16% 15.7°C
2026-09-02 00:55:49 ah02 66.16% 15.7°C
2026-09-02 00:55:48 ah02 66.16% 15.7°C
2026-09-02 00:55:44 ah02 66.16% 15.7°C
2026-09-02 00:55:43 ah02 66.16% 15.7°C
2026-09-02 00:55:24 ah02 0.04% 18.2% 60% 60 3.81 V
2026-09-02 00:55:23 ah02 0.04% 18.2% 60% 60 3.81 V
2026-09-02 00:55:20 ah02 0.04% 18.2% 60% 60 3.81 V
2026-09-02 00:55:20 ah02 0.04% 18.2% 60% 60 3.81 V
2026-09-02 00:54:27 IIXF 1.4% 3.3% 56% 1074984 3.78 V
2026-09-02 00:54:27 IIXF 1.4% 3.3% 56% 1074984 3.78 V
2026-09-02 00:53:56 EN58 0.08% 14.2% 101% 65 -0.0 V
2026-09-02 00:53:56 EN58 0.08% 14.2% 101% 65 -0.0 V
2026-09-02 00:52:31 IIXF 859.66 hPa 46.57% 15.55°C 94.61 Ohm
2026-09-02 00:52:31 IIXF 859.66 hPa 46.57% 15.55°C 94.61 Ohm
2026-09-02 00:52:26 TG08 22.02°C
2026-09-02 00:52:26 TG08 0.81% 2.9% 95% 306966 4.12 V
2026-09-02 00:51:28 ah01 0.49% 0.0% 96% 6099801 4.14 V
2026-09-02 00:51:27 ah01 0.49% 0.0% 96% 6099801 4.14 V
2026-09-02 00:51:25 ah01 0.49% 0.0% 96% 6099801 4.14 V
2026-09-02 00:51:22 ah01 0.49% 0.0% 96% 6099801 4.14 V
2026-09-02 00:51:22 ah01 0.49% 0.0% 96% 6099801 4.14 V
2026-09-02 00:51:12 5RC 1013.89 hPa 69.14% 19.72°C
2026-09-02 00:51:12 5RC 1013.89 hPa 69.14% 19.72°C
2026-09-02 00:51:02 5RC 3.64% 5.5% 98% 285808 4.17 V
2026-09-02 00:51:02 5RC 3.64% 5.5% 98% 285808 4.17 V
2026-09-02 00:50:55 5RC 3.64% 5.5% 98% 285808 4.17 V
2026-09-02 00:50:55 5RC 1013.89 hPa 69.14% 19.72°C
2026-09-02 00:50:55 5RC 3.64% 5.5% 98% 285808 4.17 V
2026-09-02 00:49:08 EEPa 855.98 hPa 46.4% 22.12°C
2026-09-02 00:49:07 EEPa 855.98 hPa 46.4% 22.12°C
2026-09-02 00:48:54 Jim1 1.22% 1.0% 91% 17283256 4.08 V
2026-09-02 00:48:53 Jim1 1.22% 1.0% 91% 17283256 4.08 V
2026-09-02 00:48:52 Jim1 1.22% 1.0% 91% 17283256 4.08 V
2026-09-02 00:48:52 Jim1 1.22% 1.0% 91% 17283256 4.08 V
2026-09-02 00:48:04 EEPr 0.2% 0.0% 101% 2211583 4.34 V
2026-09-02 00:48:03 EEPr 0.2% 0.0% 101% 2211583 4.34 V
2026-09-02 00:47:24 EN01 0.28% 0.0% 91% 126819 4.06 V
2026-09-02 00:47:24 EN01 0.28% 0.0% 91% 126819 4.06 V
2026-09-02 00:44:03 PMT2 1.55% 5.7% 101% 1707504 4.2 V
2026-09-02 00:44:01 PMT2 1.55% 5.7% 101% 1707504 4.2 V
2026-09-02 00:44:01 PMT2 1.55% 5.7% 101% 1707504 4.2 V
2026-09-02 00:43:17 PMT2 21.66°C
2026-09-02 00:43:17 PMT2 21.66°C
2026-09-02 00:43:14 PMT2 21.66°C
2026-09-02 00:43:12 PMT2 21.66°C
2026-09-02 00:43:11 PMT2 21.66°C
2026-09-02 00:43:06 DOS 1.25% 2.2% 101% 135553 4.22 V
2026-09-02 00:43:06 DOS 1.25% 2.2% 101% 135553 4.22 V
2026-09-02 00:43:04 DOS 1.25% 2.2% 101% 135553 4.22 V
2026-09-02 00:43:01 DOS 1.25% 2.2% 101% 135553 4.22 V
2026-09-02 00:43:01 DOS 1.25% 2.2% 101% 135553 4.22 V
2026-09-02 00:41:48 ah03
2026-09-02 00:41:47 ah03
2026-09-02 00:41:47 ah03
2026-09-02 00:41:43 ah03 696.34 hPa 74.32% 27.0°C
2026-09-02 00:41:41 ah03 696.34 hPa 74.32% 27.0°C
2026-09-02 00:41:41 ah03 696.34 hPa 74.32% 27.0°C
2026-09-02 00:40:56 EN06 0.33% 7.7% 89% 30896 4.05 V
2026-09-02 00:40:26 ah03 0.85% 1.1% 75% 3806362 3.95 V
2026-09-02 00:40:25 ah03 0.85% 1.1% 75% 3806362 3.95 V
2026-09-02 00:40:24 ah03 0.85% 1.1% 75% 3806362 3.95 V
2026-09-02 00:40:21 ah03 0.85% 1.1% 75% 3806362 3.95 V
2026-09-02 00:40:21 ah03 0.85% 1.1% 75% 3806362 3.95 V
2026-09-02 00:38:55 7274 1.16% 2.3% 100% 2315939 4.11 V
2026-09-02 00:38:55 7274 1.16% 2.3% 100% 2315939 4.11 V
2026-09-02 00:36:27 IIXF 1.4% 4.0% 74% 1073904 3.94 V
2026-09-02 00:36:27 IIXF 1.4% 4.0% 74% 1073904 3.94 V
2026-09-02 00:34:31 IIXF 859.75 hPa 42.25% 17.24°C 139.29 Ohm
2026-09-02 00:34:31 IIXF 859.75 hPa 42.25% 17.24°C 139.29 Ohm
2026-09-02 00:33:27 ah01 0.45% 0.0% 97% 6098720 4.15 V
2026-09-02 00:33:26 ah01 0.45% 0.0% 97% 6098720 4.15 V
2026-09-02 00:33:26 ah01 0.45% 0.0% 97% 6098720 4.15 V
2026-09-02 00:33:25 LRX1 1012.28 hPa 43.96% 21.2°C
2026-09-02 00:33:25 LRX1 1012.28 hPa 43.96% 21.2°C
2026-09-02 00:33:25 LRX1 1012.28 hPa 43.96% 21.2°C
2026-09-02 00:33:21 ah01 0.45% 0.0% 97% 6098720 4.15 V
2026-09-02 00:33:21 ah01 0.45% 0.0% 97% 6098720 4.15 V
2026-09-02 00:33:06 LRX1 0.85% 1.1% 101% 8100629 4.84 V
2026-09-02 00:33:06 LRX1 0.85% 1.1% 101% 8100629 4.84 V
2026-09-02 00:32:59 LRX1 0.85% 1.1% 101% 8100629 4.84 V
2026-09-02 00:32:58 LRX1 0.85% 1.1% 101% 8100629 4.84 V
2026-09-02 00:32:55 LRX1 0.85% 1.1% 101% 8100629 4.84 V
2026-09-02 00:32:55 LRX1 0.85% 1.1% 101% 8100629 4.84 V
2026-09-02 00:32:33 EN05 1.38% 0.0% 36% 22621 3.6 V
2026-09-02 00:32:33 EN05 1.38% 0.0% 36% 22621 3.6 V
2026-09-02 00:31:10 RF03 0.07% 0.0% 100% 1096697 4.19 V
2026-09-02 00:31:10 RF03 0.07% 0.0% 100% 1096697 4.19 V
2026-09-02 00:31:10 RF03 0.07% 0.0% 100% 1096697 4.19 V
2026-09-02 00:31:06 RF03 0.07% 0.0% 100% 1096697 4.19 V
2026-09-02 00:31:06 RF03 0.07% 0.0% 100% 1096697 4.19 V
2026-09-02 00:31:06 RF03 0.07% 0.0% 100% 1096697 4.19 V
2026-09-02 00:31:03 EEPa 0.13% 0.0% 100% 6737751 4.13 V
2026-09-02 00:31:03 EEPa 0.13% 0.0% 100% 6737751 4.13 V
2026-09-02 00:28:47 RF01 0.33% 0.0% 101% 1326932 4.25 V
2026-09-02 00:28:47 RF01 0.33% 0.0% 101% 1326932 4.25 V
2026-09-02 00:28:47 RF01 0.33% 0.0% 101% 1326932 4.25 V
2026-09-02 00:26:12 LMGB 0.25% 1.7% 101% 924716 -0.0 V
2026-09-02 00:26:11 LMGB 0.25% 1.7% 101% 924716 -0.0 V
2026-09-02 00:22:25 TG08 22.75°C
2026-09-02 00:22:24 TG08 0.85% 7.4% 95% 305165 4.13 V
2026-09-02 00:22:00 PTRH 0.33% 0.0% 56% 1338071 3.77 V
2026-09-02 00:22:00 PTRH 0.33% 0.0% 56% 1338071 3.77 V
2026-09-02 00:21:19 EN58 0.31% 12.0% 90% 125 4.05 V
2026-09-02 00:21:19 EN58 0.31% 12.0% 90% 125 4.05 V
2026-09-02 00:20:13 PMT2 1.55% 3.5% 101% 1706063 4.2 V
2026-09-02 00:20:13 PMT2 1.55% 3.5% 101% 1706063 4.2 V
2026-09-02 00:20:02 PMT2 1.55% 3.5% 101% 1706063 4.2 V
2026-09-02 00:20:01 PMT2 1.55% 3.5% 101% 1706063 4.2 V
2026-09-02 00:20:00 PMT2 1.55% 3.5% 101% 1706063 4.2 V
2026-09-02 00:20:00 LML2 0.25% 1.2% 100% 449372 4.15 V
2026-09-02 00:20:00 LML2 0.25% 1.2% 100% 449372 4.15 V
2026-09-02 00:19:16 PMT2 21.73°C
2026-09-02 00:19:16 PMT2 21.73°C
2026-09-02 00:19:14 PMT2 21.73°C
2026-09-02 00:19:11 PMT2 21.73°C
2026-09-02 00:19:11 PMT2 21.73°C
2026-09-02 00:18:27 IIXF 1.38% 5.1% 60% 1072824 3.81 V
2026-09-02 00:18:27 IIXF 1.38% 5.1% 60% 1072824 3.81 V
2026-09-02 00:17:57 EEPr 0.17% 1.1% 101% 2209777 4.34 V
2026-09-02 00:17:57 EEPr 0.17% 1.1% 101% 2209777 4.34 V
2026-09-02 00:16:31 IIXF 859.85 hPa 41.23% 17.55°C 136.69 Ohm
2026-09-02 00:16:31 IIXF 859.85 hPa 41.23% 17.55°C 136.69 Ohm
2026-09-02 00:15:24 ah01 0.37% 0.0% 96% 6097639 4.15 V
2026-09-02 00:15:24 ah01 0.37% 0.0% 96% 6097639 4.15 V
2026-09-02 00:15:23 ah01 0.37% 0.0% 96% 6097639 4.15 V
2026-09-02 00:15:20 ah01 0.37% 0.0% 96% 6097639 4.15 V
2026-09-02 00:15:20 ah01 0.37% 0.0% 96% 6097639 4.15 V
2026-09-02 00:13:00 EEPa 855.91 hPa 45.48% 22.16°C
2026-09-02 00:13:00 EEPa 855.91 hPa 45.48% 22.16°C
2026-09-02 00:10:51 ah03 696.34 hPa 74.16% 27.0°C
2026-09-02 00:10:48 ah03 696.34 hPa 74.16% 27.0°C
2026-09-02 00:10:48 ah03 696.34 hPa 74.16% 27.0°C
2026-09-02 00:10:14 J8ke
2026-09-02 00:10:13 J8ke
2026-09-02 00:10:13 J8ke
2026-09-02 00:10:10 J8ke 0.38 V
2026-09-02 00:10:10 J8ke 0.38 V
2026-09-02 00:10:10 J8ke 0.38 V
2026-09-02 00:09:41 ah03 0.85% 1.0% 76% 3804516 3.95 V
2026-09-02 00:09:41 ah03 0.85% 1.0% 76% 3804516 3.95 V
2026-09-02 00:09:39 ah03 0.85% 1.0% 76% 3804516 3.95 V
2026-09-02 00:09:37 ah03 0.85% 1.0% 76% 3804516 3.95 V
2026-09-02 00:09:36 ah03 0.85% 1.0% 76% 3804516 3.95 V
2026-09-02 00:09:01 LRX1 0.77% 1.1% 101% 8099189 4.84 V
2026-09-02 00:09:00 LRX1 1012.43 hPa 43.52% 21.24°C
2026-09-02 00:08:59 LRX1 1012.43 hPa 43.52% 21.24°C
2026-09-02 00:08:59 LRX1 1012.43 hPa 43.52% 21.24°C
2026-09-02 00:08:52 LRX1 0.77% 1.1% 101% 8099189 4.84 V
2026-09-02 00:08:51 LRX1 0.77% 1.1% 101% 8099189 4.84 V
2026-09-02 00:07:45 htec 3.47% 3.6% 101% 72834 4.28 V
2026-09-02 00:07:45 htec 3.47% 3.6% 101% 72834 4.28 V
2026-09-02 00:06:03 5RC 0.57% 0.0% 100% 283105 4.19 V
2026-09-02 00:05:53 5RC 0.57% 0.0% 100% 283105 4.19 V
2026-09-02 00:05:52 5RC 0.57% 0.0% 100% 283105 4.19 V
2026-09-02 00:05:52 5RC 1014.19 hPa 67.85% 20.74°C
2026-09-02 00:04:35 2c98 0.05% 0.0% 101% 623091 4.37 V
2026-09-02 00:04:35 2c98 0.05% 0.0% 101% 623091 4.37 V
2026-09-02 00:02:55 7274 1.14% 1.6% 100% 2313779 4.11 V
2026-09-02 00:02:54 7274 1.14% 1.6% 100% 2313779 4.11 V
2026-09-02 00:02:24 EN05 1.0% 9.9% 38% 20820 3.61 V
2026-09-02 00:01:12 RF03 0.04% 3.1% 99% 1094896 4.19 V
2026-09-02 00:01:12 RF03 0.04% 3.1% 99% 1094896 4.19 V
2026-09-02 00:01:12 RF03 0.04% 3.1% 99% 1094896 4.19 V
2026-09-02 00:01:05 RF03 0.04% 3.1% 99% 1094896 4.19 V
2026-09-02 00:01:05 RF03 0.04% 3.1% 99% 1094896 4.19 V
2026-09-02 00:01:05 RF03 0.04% 3.1% 99% 1094896 4.19 V
2026-09-02 00:00:59 Jim1 1.4% 8.2% 92% 17280376 4.08 V
2026-09-02 00:00:50 Jim1 1.4% 8.2% 92% 17280376 4.08 V
2026-09-02 00:00:50 Jim1 1.4% 8.2% 92% 17280376 4.08 V
2026-09-02 00:00:50 Jim1 1.4% 8.2% 92% 17280376 4.08 V
2026-09-01 23:57:27 IIXF 1.42% 4.0% 94% 1071564 4.11 V
2026-09-01 23:57:26 IIXF 1.42% 4.0% 94% 1071564 4.11 V
2026-09-01 23:57:24 ah01 0.37% 1.1% 96% 6096558 4.15 V
2026-09-01 23:57:23 ah01 0.37% 1.1% 96% 6096558 4.15 V
2026-09-01 23:57:23 ah01 0.37% 1.1% 96% 6096558 4.15 V
2026-09-01 23:57:19 ah01 0.37% 1.1% 96% 6096558 4.15 V
2026-09-01 23:57:19 ah01 0.37% 1.1% 96% 6096558 4.15 V
2026-09-01 23:56:55 EN11 0.41% 0.0% 101% 49000 4.12 V
2026-09-01 23:56:55 EN11 0.41% 0.0% 101% 49000 4.12 V
2026-09-01 23:56:03 PMT2 1.64% 7.3% 101% 1704623 4.2 V
2026-09-01 23:56:02 PMT2 1.64% 7.3% 101% 1704623 4.2 V
2026-09-01 23:56:00 PMT2 1.64% 7.3% 101% 1704623 4.2 V
2026-09-01 23:55:31 IIXF 859.87 hPa 43.43% 16.49°C 123.44 Ohm
2026-09-01 23:55:30 IIXF 859.87 hPa 43.43% 16.49°C 123.44 Ohm
2026-09-01 23:55:11 PMT2 22.13°C
2026-09-01 23:55:10 PMT2 22.13°C
2026-09-01 23:55:08 DOS 1.3% 4.2% 99% 132673 4.18 V
2026-09-01 23:55:07 DOS 1.3% 4.2% 99% 132673 4.18 V
2026-09-01 23:55:06 DOS 1.3% 4.2% 99% 132673 4.18 V
2026-09-01 23:55:01 DOS 1.3% 4.2% 99% 132673 4.18 V
2026-09-01 23:55:01 DOS 1.3% 4.2% 99% 132673 4.18 V
2026-09-01 23:53:15 ah02 66.51% 15.77°C
2026-09-01 23:53:13 ah02 66.51% 15.77°C
2026-09-01 23:53:12 ah02 66.51% 15.77°C
2026-09-01 23:53:03 dc64 0.2% 2.1% 96% 1215793 4.14 V
2026-09-01 23:53:03 dc64 0.2% 2.1% 96% 1215793 4.14 V
2026-09-01 23:52:53 ah02 0.04% 10.7% 61% 61 3.81 V
2026-09-01 23:52:52 ah02 0.04% 10.7% 61% 61 3.81 V
2026-09-01 23:52:52 ah02 0.04% 10.7% 61% 61 3.81 V
2026-09-01 23:52:23 TG08 0.55% 0.0% 97% 303364 4.15 V
2026-09-01 23:52:23 TG08 23.28°C
2026-09-01 23:50:49 DJMH 0.27% 3.4% 87% 16823784 4.04 V
2026-09-01 23:50:49 DJMH 0.27% 3.4% 87% 16823784 4.04 V
2026-09-01 23:50:11 LMGB 0.26% 2.3% 101% 922556 -0.0 V
2026-09-01 23:50:11 LMGB 0.26% 2.3% 101% 922556 -0.0 V
2026-09-01 23:47:51 EEPr 0.11% 0.0% 101% 2207971 4.34 V
2026-09-01 23:47:51 EEPr 0.11% 0.0% 101% 2207971 4.34 V
2026-09-01 23:47:17 EN01 0.34% 3.0% 92% 123218 4.08 V
2026-09-01 23:47:17 EN01 0.34% 3.0% 92% 123218 4.08 V
2026-09-01 23:46:00 PTRH 0.44% 0.0% 49% 1335911 3.71 V
2026-09-01 23:45:59 PTRH 0.44% 0.0% 49% 1335911 3.71 V
2026-09-01 23:44:55 LRX1 0.86% 2.1% 101% 8097749 4.85 V
2026-09-01 23:44:54 LRX1 0.86% 2.1% 101% 8097749 4.85 V
2026-09-01 23:44:52 LRX1 0.86% 2.1% 101% 8097749 4.85 V
2026-09-01 23:44:50 LRX1 0.86% 2.1% 101% 8097749 4.85 V
2026-09-01 23:44:49 LRX1 0.86% 2.1% 101% 8097749 4.85 V
2026-09-01 23:44:00 LML2 0.25% 1.2% 100% 447212 4.14 V
2026-09-01 23:43:59 LML2 0.25% 1.2% 100% 447212 4.14 V
2026-09-01 23:40:54 EN06 0.49% 3.3% 90% 27295 4.06 V
2026-09-01 23:40:54 EN06 0.49% 3.3% 90% 27295 4.06 V
2026-09-01 23:40:54 EN06 0.49% 3.3% 90% 27295 4.06 V
2026-09-01 23:40:47 RF01 0.34% 3.8% 100% 1324052 4.2 V
2026-09-01 23:40:47 RF01 0.34% 3.8% 100% 1324052 4.2 V
2026-09-01 23:40:47 RF01 0.34% 3.8% 100% 1324052 4.2 V
2026-09-01 23:39:59 ah03 696.34 hPa 75.48% 27.0°C
2026-09-01 23:39:58 ah03 696.34 hPa 75.48% 27.0°C
2026-09-01 23:39:57 ah03 696.34 hPa 75.48% 27.0°C
2026-09-01 23:39:54 ah03 696.34 hPa 75.48% 27.0°C
2026-09-01 23:39:54 ah03 696.34 hPa 75.48% 27.0°C
2026-09-01 23:39:22 ah01 0.28% 2.1% 96% 6095477 4.15 V
2026-09-01 23:39:21 ah01 0.28% 2.1% 96% 6095477 4.15 V
2026-09-01 23:39:21 ah01 0.28% 2.1% 96% 6095477 4.15 V
2026-09-01 23:39:20 ah01 0.28% 2.1% 96% 6095477 4.15 V
2026-09-01 23:39:20 ah01 0.28% 2.1% 96% 6095477 4.15 V
2026-09-01 23:38:41 ah03 0.85% 1.0% 76% 3802649 3.95 V
2026-09-01 23:38:40 ah03 0.85% 1.0% 76% 3802649 3.95 V
2026-09-01 23:38:40 ah03 0.85% 1.0% 76% 3802649 3.95 V
2026-09-01 23:38:34 ah03 0.85% 1.0% 76% 3802649 3.95 V
2026-09-01 23:38:34 ah03 0.85% 1.0% 76% 3802649 3.95 V
2026-09-01 23:36:53 EEPa 856.0 hPa 44.44% 22.16°C
2026-09-01 23:36:53 EEPa 856.0 hPa 44.44% 22.16°C
2026-09-01 23:36:27 IIXF 1.38% 5.5% 76% 1070304 3.96 V
2026-09-01 23:36:26 IIXF 1.38% 5.5% 76% 1070304 3.96 V
2026-09-01 23:34:31 IIXF 859.77 hPa 40.55% 17.67°C 126.6 Ohm
2026-09-01 23:34:30 IIXF 859.77 hPa 40.55% 17.67°C 126.6 Ohm
2026-09-01 23:32:23 EN05 0.96% 0.0% 39% 19019 3.63 V
2026-09-01 23:32:03 PMT2 1.61% 1.8% 101% 1703182 4.2 V
2026-09-01 23:32:03 PMT2 1.61% 1.8% 101% 1703182 4.2 V
2026-09-01 23:32:03 PMT2 1.61% 1.8% 101% 1703182 4.2 V
2026-09-01 23:32:00 PMT2 1.61% 1.8% 101% 1703182 4.2 V
2026-09-01 23:31:59 PMT2 1.61% 1.8% 101% 1703182 4.2 V
2026-09-01 23:31:10 PMT2 22.24°C
2026-09-01 23:31:10 PMT2 22.24°C
2026-09-01 23:31:05 RF03 0.06% 2.0% 99% 1093095 4.19 V
2026-09-01 23:31:05 RF03 0.06% 2.0% 99% 1093095 4.19 V
2026-09-01 23:31:05 RF03 0.06% 2.0% 99% 1093095 4.19 V
2026-09-01 23:26:55 7274 1.17% 1.1% 100% 2311618 4.11 V
2026-09-01 23:26:54 7274 1.17% 1.1% 100% 2311618 4.11 V
2026-09-01 23:25:42 tge0 2.78% 2.8% 94% 9744050 4.12 V
2026-09-01 23:25:42 tge0 2.78% 2.8% 94% 9744050 4.12 V
2026-09-01 23:25:41 tge0 2.78% 2.8% 94% 9744050 4.12 V
2026-09-01 23:25:40 tge0 2.78% 2.8% 94% 9744050 4.12 V
2026-09-01 23:22:22 TG08 24.26°C
2026-09-01 23:22:22 TG08 0.41% 1.1% 98% 301562 4.16 V
2026-09-01 23:22:00 J8ke
2026-09-01 23:22:00 J8ke
2026-09-01 23:22:00 J8ke
2026-09-01 23:21:22 ah01 0.32% 0.0% 96% 6094396 4.15 V
2026-09-01 23:21:21 ah01 0.32% 0.0% 96% 6094396 4.15 V
2026-09-01 23:21:21 ah01 0.32% 0.0% 96% 6094396 4.15 V
2026-09-01 23:21:18 ah01 0.32% 0.0% 96% 6094396 4.15 V
2026-09-01 23:21:17 ah01 0.32% 0.0% 96% 6094396 4.15 V
2026-09-01 23:21:06 LRX1 1012.71 hPa 43.61% 21.25°C
2026-09-01 23:21:04 LRX1 1012.71 hPa 43.61% 21.25°C
2026-09-01 23:21:04 LRX1 1012.71 hPa 43.61% 21.25°C
2026-09-01 23:20:57 5RC 1.96% 2.0% 91% 280404 4.07 V
2026-09-01 23:20:57 LRX1 0.92% 3.3% 101% 8096309 4.85 V
2026-09-01 23:20:56 LRX1 0.92% 3.3% 101% 8096309 4.85 V
2026-09-01 23:17:45 EEPr 0.15% 0.0% 101% 2206164 4.34 V
2026-09-01 23:17:45 EEPr 0.15% 0.0% 101% 2206164 4.34 V
2026-09-01 23:15:27 IIXF 1.47% 4.6% 69% 1069044 3.88 V
2026-09-01 23:15:26 IIXF 1.47% 4.6% 69% 1069044 3.88 V
2026-09-01 23:14:11 LMGB 0.28% 0.5% 101% 920396 -0.0 V
2026-09-01 23:14:11 LMGB 0.28% 0.5% 101% 920396 -0.0 V
2026-09-01 23:13:31 IIXF 859.79 hPa 39.79% 18.33°C 119.92 Ohm
2026-09-01 23:13:30 IIXF 859.79 hPa 39.79% 18.33°C 119.92 Ohm
2026-09-01 23:10:00 PTRH 0.43% 0.0% 50% 1333751 3.72 V
2026-09-01 23:09:59 PTRH 0.43% 0.0% 50% 1333751 3.72 V
2026-09-01 23:09:54 ah03
2026-09-01 23:09:53 ah03
2026-09-01 23:09:53 ah03
2026-09-01 23:09:51 ah03 696.34 hPa 75.21% 27.0°C
2026-09-01 23:09:49 ah03 696.34 hPa 75.21% 27.0°C
2026-09-01 23:09:48 ah03 696.34 hPa 75.21% 27.0°C
2026-09-01 23:09:45 ah03 696.34 hPa 75.21% 27.0°C
2026-09-01 23:09:45 ah03 696.34 hPa 75.21% 27.0°C
2026-09-01 23:08:33 ah03 0.85% 2.1% 76% 3800843 3.95 V
2026-09-01 23:08:33 ah03 0.85% 2.1% 76% 3800843 3.95 V
2026-09-01 23:08:03 PMT2 1.53% 1.9% 101% 1701742 4.2 V
2026-09-01 23:08:03 PMT2 1.53% 1.9% 101% 1701742 4.2 V
2026-09-01 23:08:01 PMT2 1.53% 1.9% 101% 1701742 4.2 V
2026-09-01 23:07:59 LML2 0.28% 0.0% 100% 445052 4.14 V
2026-09-01 23:07:59 PMT2 1.53% 1.9% 101% 1701742 4.2 V
2026-09-01 23:07:59 LML2 0.28% 0.0% 100% 445052 4.14 V
2026-09-01 23:07:59 PMT2 1.53% 1.9% 101% 1701742 4.2 V
2026-09-01 23:07:10 DOS 1.46% 2.4% 101% 129793 4.21 V
Visit MeshInfo-Lite on Github. Also visit the original MeshInfo by Kevin Elliott.